sensor_id;sensor_type;location;lat;lon;timestamp;temperature;humidity
15257;DHT22;7731;50.720;6.912;2022-11-02T00:01:17;12.70;99.90
15257;DHT22;7731;50.720;6.912;2022-11-02T00:03:52;12.70;99.90
15257;DHT22;7731;50.720;6.912;2022-11-02T00:06:25;12.70;99.90
15257;DHT22;7731;50.720;6.912;2022-11-02T00:09:01;12.70;99.90
15257;DHT22;7731;50.720;6.912;2022-11-02T00:11:32;12.80;99.90
15257;DHT22;7731;50.720;6.912;2022-11-02T00:14:03;12.80;99.90
15257;DHT22;7731;50.720;6.912;2022-11-02T00:16:36;12.80;99.90
15257;DHT22;7731;50.720;6.912;2022-11-02T00:19:13;12.80;99.90
15257;DHT22;7731;50.720;6.912;2022-11-02T00:21:44;12.90;99.90
15257;DHT22;7731;50.720;6.912;2022-11-02T00:24:14;12.90;99.90
15257;DHT22;7731;50.720;6.912;2022-11-02T00:26:44;12.80;99.90
15257;DHT22;7731;50.720;6.912;2022-11-02T00:29:14;12.70;99.90
15257;DHT22;7731;50.720;6.912;2022-11-02T00:31:58;12.70;99.90
15257;DHT22;7731;50.720;6.912;2022-11-02T00:34:34;12.60;99.90
15257;DHT22;7731;50.720;6.912;2022-11-02T00:37:05;12.60;99.90
15257;DHT22;7731;50.720;6.912;2022-11-02T00:39:35;12.70;99.90
15257;DHT22;7731;50.720;6.912;2022-11-02T00:42:05;12.60;99.90
15257;DHT22;7731;50.720;6.912;2022-11-02T00:44:41;12.70;99.90
15257;DHT22;7731;50.720;6.912;2022-11-02T00:47:17;12.80;99.90
15257;DHT22;7731;50.720;6.912;2022-11-02T00:49:55;12.80;99.90
15257;DHT22;7731;50.720;6.912;2022-11-02T00:52:25;12.70;99.90
15257;DHT22;7731;50.720;6.912;2022-11-02T00:54:58;12.70;99.90
15257;DHT22;7731;50.720;6.912;2022-11-02T00:57:28;12.80;99.90
15257;DHT22;7731;50.720;6.912;2022-11-02T01:00:01;12.80;99.90
15257;DHT22;7731;50.720;6.912;2022-11-02T01:02:32;12.80;99.90
15257;DHT22;7731;50.720;6.912;2022-11-02T01:05:09;12.80;99.90
15257;DHT22;7731;50.720;6.912;2022-11-02T01:07:40;12.80;99.90
15257;DHT22;7731;50.720;6.912;2022-11-02T01:10:17;12.70;99.90
15257;DHT22;7731;50.720;6.912;2022-11-02T01:12:48;12.70;99.90
15257;DHT22;7731;50.720;6.912;2022-11-02T01:15:19;12.70;99.90
15257;DHT22;7731;50.720;6.912;2022-11-02T01:17:52;12.60;99.90
15257;DHT22;7731;50.720;6.912;2022-11-02T01:20:25;12.70;99.90
15257;DHT22;7731;50.720;6.912;2022-11-02T01:22:56;12.70;99.90
15257;DHT22;7731;50.720;6.912;2022-11-02T01:25:29;12.70;99.90
15257;DHT22;7731;50.720;6.912;2022-11-02T01:28:03;12.70;99.90
15257;DHT22;7731;50.720;6.912;2022-11-02T01:30:33;12.70;99.90
15257;DHT22;7731;50.720;6.912;2022-11-02T01:33:04;12.80;99.90
15257;DHT22;7731;50.720;6.912;2022-11-02T01:35:38;12.90;99.90
15257;DHT22;7731;50.720;6.912;2022-11-02T01:38:08;12.80;99.90
15257;DHT22;7731;50.720;6.912;2022-11-02T01:40:39;12.90;99.90
15257;DHT22;7731;50.720;6.912;2022-11-02T01:43:28;12.80;99.90
15257;DHT22;7731;50.720;6.912;2022-11-02T01:46:05;12.80;99.90
15257;DHT22;7731;50.720;6.912;2022-11-02T01:48:44;12.90;99.90
15257;DHT22;7731;50.720;6.912;2022-11-02T01:51:21;12.90;99.90
15257;DHT22;7731;50.720;6.912;2022-11-02T01:53:58;12.80;99.90
15257;DHT22;7731;50.720;6.912;2022-11-02T01:56:38;12.80;99.90
15257;DHT22;7731;50.720;6.912;2022-11-02T01:59:12;12.70;99.90
15257;DHT22;7731;50.720;6.912;2022-11-02T02:01:45;12.60;99.90
15257;DHT22;7731;50.720;6.912;2022-11-02T02:04:16;12.60;99.90
15257;DHT22;7731;50.720;6.912;2022-11-02T02:06:49;12.60;99.90
15257;DHT22;7731;50.720;6.912;2022-11-02T02:09:22;12.60;99.90
15257;DHT22;7731;50.720;6.912;2022-11-02T02:11:53;12.60;99.90
15257;DHT22;7731;50.720;6.912;2022-11-02T02:14:26;12.70;99.90
15257;DHT22;7731;50.720;6.912;2022-11-02T02:19:57;12.70;99.90
15257;DHT22;7731;50.720;6.912;2022-11-02T02:23:10;12.60;99.90
15257;DHT22;7731;50.720;6.912;2022-11-02T02:26:35;12.40;99.90
15257;DHT22;7731;50.720;6.912;2022-11-02T02:29:20;12.40;99.90
15257;DHT22;7731;50.720;6.912;2022-11-02T02:31:56;12.30;99.90
15257;DHT22;7731;50.720;6.912;2022-11-02T02:34:36;12.30;99.90
15257;DHT22;7731;50.720;6.912;2022-11-02T02:37:16;12.10;99.90
15257;DHT22;7731;50.720;6.912;2022-11-02T02:39:56;12.10;99.90
15257;DHT22;7731;50.720;6.912;2022-11-02T02:42:35;12.00;99.90
15257;DHT22;7731;50.720;6.912;2022-11-02T02:45:17;12.00;99.90
15257;DHT22;7731;50.720;6.912;2022-11-02T02:48:00;11.90;99.90
15257;DHT22;7731;50.720;6.912;2022-11-02T02:50:40;11.80;99.90
15257;DHT22;7731;50.720;6.912;2022-11-02T02:53:20;11.80;99.90
15257;DHT22;7731;50.720;6.912;2022-11-02T02:55:54;11.80;99.90
15257;DHT22;7731;50.720;6.912;2022-11-02T02:58:31;11.80;99.90
15257;DHT22;7731;50.720;6.912;2022-11-02T03:01:11;11.80;99.90
15257;DHT22;7731;50.720;6.912;2022-11-02T03:03:43;11.80;99.90
15257;DHT22;7731;50.720;6.912;2022-11-02T03:06:23;11.70;99.90
15257;DHT22;7731;50.720;6.912;2022-11-02T03:09:04;11.70;99.90
15257;DHT22;7731;50.720;6.912;2022-11-02T03:11:45;11.70;99.90
15257;DHT22;7731;50.720;6.912;2022-11-02T03:14:36;11.70;99.90
15257;DHT22;7731;50.720;6.912;2022-11-02T03:17:22;11.60;99.90
15257;DHT22;7731;50.720;6.912;2022-11-02T03:20:05;11.50;99.90
15257;DHT22;7731;50.720;6.912;2022-11-02T03:22:56;11.50;99.90
15257;DHT22;7731;50.720;6.912;2022-11-02T03:25:40;11.60;99.90
15257;DHT22;7731;50.720;6.912;2022-11-02T03:28:41;11.60;99.90
15257;DHT22;7731;50.720;6.912;2022-11-02T03:31:31;11.60;99.90
15257;DHT22;7731;50.720;6.912;2022-11-02T03:34:16;11.70;99.90
15257;DHT22;7731;50.720;6.912;2022-11-02T03:36:57;11.60;99.90
15257;DHT22;7731;50.720;6.912;2022-11-02T03:39:38;11.60;99.90
15257;DHT22;7731;50.720;6.912;2022-11-02T03:42:15;11.60;99.90
15257;DHT22;7731;50.720;6.912;2022-11-02T03:44:56;11.70;99.90
15257;DHT22;7731;50.720;6.912;2022-11-02T03:47:32;11.60;99.90
15257;DHT22;7731;50.720;6.912;2022-11-02T03:50:11;11.60;99.90
15257;DHT22;7731;50.720;6.912;2022-11-02T03:52:44;11.50;99.90
15257;DHT22;7731;50.720;6.912;2022-11-02T03:55:19;11.50;99.90
15257;DHT22;7731;50.720;6.912;2022-11-02T03:58:00;11.40;99.90
15257;DHT22;7731;50.720;6.912;2022-11-02T04:00:34;11.40;99.90
15257;DHT22;7731;50.720;6.912;2022-11-02T04:03:05;11.30;99.90
15257;DHT22;7731;50.720;6.912;2022-11-02T04:05:48;11.20;99.90
15257;DHT22;7731;50.720;6.912;2022-11-02T04:08:21;11.20;99.90
15257;DHT22;7731;50.720;6.912;2022-11-02T04:10:58;11.20;99.90
15257;DHT22;7731;50.720;6.912;2022-11-02T04:13:41;11.20;99.90
15257;DHT22;7731;50.720;6.912;2022-11-02T04:16:23;11.20;99.90
15257;DHT22;7731;50.720;6.912;2022-11-02T04:18:54;11.20;99.90
15257;DHT22;7731;50.720;6.912;2022-11-02T04:21:46;11.10;99.90
15257;DHT22;7731;50.720;6.912;2022-11-02T04:24:29;11.10;99.90
15257;DHT22;7731;50.720;6.912;2022-11-02T04:27:23;11.20;99.90
15257;DHT22;7731;50.720;6.912;2022-11-02T04:29:54;11.20;99.90
15257;DHT22;7731;50.720;6.912;2022-11-02T04:32:24;11.20;99.90
15257;DHT22;7731;50.720;6.912;2022-11-02T04:35:08;11.20;99.90
15257;DHT22;7731;50.720;6.912;2022-11-02T04:37:43;11.30;99.90
15257;DHT22;7731;50.720;6.912;2022-11-02T04:40:26;11.30;99.90
15257;DHT22;7731;50.720;6.912;2022-11-02T04:42:56;11.30;99.90
15257;DHT22;7731;50.720;6.912;2022-11-02T04:45:26;11.30;99.90
15257;DHT22;7731;50.720;6.912;2022-11-02T04:47:59;11.30;99.90
15257;DHT22;7731;50.720;6.912;2022-11-02T04:50:30;11.50;99.90
15257;DHT22;7731;50.720;6.912;2022-11-02T04:53:04;11.50;99.90
15257;DHT22;7731;50.720;6.912;2022-11-02T04:55:38;11.60;99.90
15257;DHT22;7731;50.720;6.912;2022-11-02T04:58:08;11.60;99.90
15257;DHT22;7731;50.720;6.912;2022-11-02T05:00:38;11.70;99.90
15257;DHT22;7731;50.720;6.912;2022-11-02T05:03:08;11.80;99.90
15257;DHT22;7731;50.720;6.912;2022-11-02T05:05:39;11.80;99.90
15257;DHT22;7731;50.720;6.912;2022-11-02T05:08:15;11.80;99.90
15257;DHT22;7731;50.720;6.912;2022-11-02T05:10:45;11.70;99.90
15257;DHT22;7731;50.720;6.912;2022-11-02T05:13:15;11.70;99.90
15257;DHT22;7731;50.720;6.912;2022-11-02T05:15:47;11.70;99.90
15257;DHT22;7731;50.720;6.912;2022-11-02T05:18:17;11.60;99.90
15257;DHT22;7731;50.720;6.912;2022-11-02T05:21:08;11.60;99.90
15257;DHT22;7731;50.720;6.912;2022-11-02T05:23:44;11.50;99.90
15257;DHT22;7731;50.720;6.912;2022-11-02T05:26:17;11.50;99.90
15257;DHT22;7731;50.720;6.912;2022-11-02T05:28:47;11.50;99.90
15257;DHT22;7731;50.720;6.912;2022-11-02T05:31:18;11.40;99.90
15257;DHT22;7731;50.720;6.912;2022-11-02T05:33:48;11.40;99.90
15257;DHT22;7731;50.720;6.912;2022-11-02T05:36:18;11.50;99.90
15257;DHT22;7731;50.720;6.912;2022-11-02T05:38:54;11.50;99.90
15257;DHT22;7731;50.720;6.912;2022-11-02T05:41:24;11.40;99.90
15257;DHT22;7731;50.720;6.912;2022-11-02T05:43:54;11.30;99.90
15257;DHT22;7731;50.720;6.912;2022-11-02T05:46:25;11.40;99.90
15257;DHT22;7731;50.720;6.912;2022-11-02T05:48:55;11.30;99.90
15257;DHT22;7731;50.720;6.912;2022-11-02T05:51:25;11.30;99.90
15257;DHT22;7731;50.720;6.912;2022-11-02T05:54:01;11.30;99.90
15257;DHT22;7731;50.720;6.912;2022-11-02T05:56:31;11.40;99.90
15257;DHT22;7731;50.720;6.912;2022-11-02T05:59:01;11.40;99.90
15257;DHT22;7731;50.720;6.912;2022-11-02T06:01:34;11.30;99.90
15257;DHT22;7731;50.720;6.912;2022-11-02T06:04:05;11.30;99.90
15257;DHT22;7731;50.720;6.912;2022-11-02T06:06:35;11.30;99.90
15257;DHT22;7731;50.720;6.912;2022-11-02T06:09:11;11.30;99.90
15257;DHT22;7731;50.720;6.912;2022-11-02T06:11:41;11.30;99.90
15257;DHT22;7731;50.720;6.912;2022-11-02T06:14:14;11.40;99.90
15257;DHT22;7731;50.720;6.912;2022-11-02T06:16:44;11.40;99.90
15257;DHT22;7731;50.720;6.912;2022-11-02T06:19:16;11.40;99.90
15257;DHT22;7731;50.720;6.912;2022-11-02T06:21:47;11.40;99.90
15257;DHT22;7731;50.720;6.912;2022-11-02T06:24:19;11.40;99.90
15257;DHT22;7731;50.720;6.912;2022-11-02T06:26:53;11.40;99.90
15257;DHT22;7731;50.720;6.912;2022-11-02T06:29:23;11.40;99.90
15257;DHT22;7731;50.720;6.912;2022-11-02T06:31:54;11.30;99.90
15257;DHT22;7731;50.720;6.912;2022-11-02T06:34:24;11.30;99.90
15257;DHT22;7731;50.720;6.912;2022-11-02T06:36:54;11.40;99.90
15257;DHT22;7731;50.720;6.912;2022-11-02T06:39:26;11.50;99.90
15257;DHT22;7731;50.720;6.912;2022-11-02T06:41:59;11.50;99.90
15257;DHT22;7731;50.720;6.912;2022-11-02T06:44:29;11.50;99.90
15257;DHT22;7731;50.720;6.912;2022-11-02T06:47:05;11.50;99.90
15257;DHT22;7731;50.720;6.912;2022-11-02T06:49:38;11.60;99.90
15257;DHT22;7731;50.720;6.912;2022-11-02T06:52:08;11.60;99.90
15257;DHT22;7731;50.720;6.912;2022-11-02T06:54:41;11.60;99.90
15257;DHT22;7731;50.720;6.912;2022-11-02T06:57:11;11.70;99.90
15257;DHT22;7731;50.720;6.912;2022-11-02T06:59:41;11.70;99.90
15257;DHT22;7731;50.720;6.912;2022-11-02T07:02:18;11.80;99.90
15257;DHT22;7731;50.720;6.912;2022-11-02T07:04:49;11.80;99.90
15257;DHT22;7731;50.720;6.912;2022-11-02T07:07:19;11.90;99.90
15257;DHT22;7731;50.720;6.912;2022-11-02T07:09:52;12.00;99.90
15257;DHT22;7731;50.720;6.912;2022-11-02T07:12:22;12.10;99.90
15257;DHT22;7731;50.720;6.912;2022-11-02T07:14:55;12.10;99.90
15257;DHT22;7731;50.720;6.912;2022-11-02T07:17:28;12.10;99.90
15257;DHT22;7731;50.720;6.912;2022-11-02T07:19:58;12.10;99.90
15257;DHT22;7731;50.720;6.912;2022-11-02T07:22:31;12.20;99.90
15257;DHT22;7731;50.720;6.912;2022-11-02T07:25:09;12.20;99.90
15257;DHT22;7731;50.720;6.912;2022-11-02T07:27:39;12.30;99.90
15257;DHT22;7731;50.720;6.912;2022-11-02T07:30:14;12.30;99.90
15257;DHT22;7731;50.720;6.912;2022-11-02T07:32:48;12.40;99.90
15257;DHT22;7731;50.720;6.912;2022-11-02T07:35:21;12.60;99.90
15257;DHT22;7731;50.720;6.912;2022-11-02T07:37:57;12.70;96.20
15257;DHT22;7731;50.720;6.912;2022-11-02T07:40:34;12.90;84.00
15257;DHT22;7731;50.720;6.912;2022-11-02T07:43:06;13.40;59.70
15257;DHT22;7731;50.720;6.912;2022-11-02T07:45:36;14.20;1.00
15257;DHT22;7731;50.720;6.912;2022-11-02T07:48:06;15.00;1.00
15257;DHT22;7731;50.720;6.912;2022-11-02T07:50:37;16.50;1.00
15257;DHT22;7731;50.720;6.912;2022-11-02T07:53:08;17.70;99.90
15257;DHT22;7731;50.720;6.912;2022-11-02T07:55:43;18.70;1.00
15257;DHT22;7731;50.720;6.912;2022-11-02T07:58:13;19.60;99.90
15257;DHT22;7731;50.720;6.912;2022-11-02T08:00:46;20.30;68.80
15257;DHT22;7731;50.720;6.912;2022-11-02T08:03:21;21.30;1.00
15257;DHT22;7731;50.720;6.912;2022-11-02T08:05:52;21.50;1.00
15257;DHT22;7731;50.720;6.912;2022-11-02T08:08:23;22.10;99.90
15257;DHT22;7731;50.720;6.912;2022-11-02T08:11:02;22.40;99.90
15257;DHT22;7731;50.720;6.912;2022-11-02T08:13:37;23.20;99.90
15257;DHT22;7731;50.720;6.912;2022-11-02T08:16:10;23.30;74.10
15257;DHT22;7731;50.720;6.912;2022-11-02T08:18:43;23.90;1.00
15257;DHT22;7731;50.720;6.912;2022-11-02T08:21:13;23.50;1.00
15257;DHT22;7731;50.720;6.912;2022-11-02T08:23:54;23.20;1.00
15257;DHT22;7731;50.720;6.912;2022-11-02T08:26:30;22.20;99.90
15257;DHT22;7731;50.720;6.912;2022-11-02T08:29:03;21.00;1.00
15257;DHT22;7731;50.720;6.912;2022-11-02T08:31:33;20.60;1.00
15257;DHT22;7731;50.720;6.912;2022-11-02T08:34:09;19.90;1.00
15257;DHT22;7731;50.720;6.912;2022-11-02T08:36:40;19.70;99.90
15257;DHT22;7731;50.720;6.912;2022-11-02T08:39:10;20.30;1.00
15257;DHT22;7731;50.720;6.912;2022-11-02T08:41:50;21.70;1.00
15257;DHT22;7731;50.720;6.912;2022-11-02T08:44:26;22.40;99.90
15257;DHT22;7731;50.720;6.912;2022-11-02T08:46:56;23.40;8.80
15257;DHT22;7731;50.720;6.912;2022-11-02T08:49:31;24.10;1.00
15257;DHT22;7731;50.720;6.912;2022-11-02T08:52:04;23.80;1.00
15257;DHT22;7731;50.720;6.912;2022-11-02T08:54:34;24.00;1.00
15257;DHT22;7731;50.720;6.912;2022-11-02T08:57:13;24.40;1.00
15257;DHT22;7731;50.720;6.912;2022-11-02T08:59:46;24.10;1.00
15257;DHT22;7731;50.720;6.912;2022-11-02T09:02:17;24.80;1.00
15257;DHT22;7731;50.720;6.912;2022-11-02T09:04:47;25.00;1.00
15257;DHT22;7731;50.720;6.912;2022-11-02T09:07:20;24.20;1.00
15257;DHT22;7731;50.720;6.912;2022-11-02T09:09:50;24.50;1.00
15257;DHT22;7731;50.720;6.912;2022-11-02T09:12:23;25.20;1.00
15257;DHT22;7731;50.720;6.912;2022-11-02T09:14:56;24.80;1.00
15257;DHT22;7731;50.720;6.912;2022-11-02T09:17:27;24.80;1.00
15257;DHT22;7731;50.720;6.912;2022-11-02T09:19:57;24.80;1.00
15257;DHT22;7731;50.720;6.912;2022-11-02T09:22:28;24.80;1.00
15257;DHT22;7731;50.720;6.912;2022-11-02T09:24:58;25.00;1.00
15257;DHT22;7731;50.720;6.912;2022-11-02T09:27:36;25.10;1.00
15257;DHT22;7731;50.720;6.912;2022-11-02T09:30:08;24.50;1.00
15257;DHT22;7731;50.720;6.912;2022-11-02T09:32:42;23.00;1.00
15257;DHT22;7731;50.720;6.912;2022-11-02T09:35:12;22.50;99.90
15257;DHT22;7731;50.720;6.912;2022-11-02T09:37:42;22.30;99.90
15257;DHT22;7731;50.720;6.912;2022-11-02T09:40:19;22.40;96.40
15257;DHT22;7731;50.720;6.912;2022-11-02T09:43:04;22.60;1.00
15257;DHT22;7731;50.720;6.912;2022-11-02T09:46:00;22.50;65.40
15257;DHT22;7731;50.720;6.912;2022-11-02T09:48:40;22.80;1.00
15257;DHT22;7731;50.720;6.912;2022-11-02T09:51:16;23.00;25.20
15257;DHT22;7731;50.720;6.912;2022-11-02T09:53:57;22.90;1.00
15257;DHT22;7731;50.720;6.912;2022-11-02T09:56:42;22.70;1.00
15257;DHT22;7731;50.720;6.912;2022-11-02T09:59:19;22.60;1.00
15257;DHT22;7731;50.720;6.912;2022-11-02T10:02:01;22.60;1.00
15257;DHT22;7731;50.720;6.912;2022-11-02T10:04:59;22.60;1.00
15257;DHT22;7731;50.720;6.912;2022-11-02T10:08:12;21.30;76.30
15257;DHT22;7731;50.720;6.912;2022-11-02T10:11:02;21.70;1.00
15257;DHT22;7731;50.720;6.912;2022-11-02T10:13:45;21.60;55.30
15257;DHT22;7731;50.720;6.912;2022-11-02T10:16:33;21.10;99.90
15257;DHT22;7731;50.720;6.912;2022-11-02T10:19:10;20.60;99.90
15257;DHT22;7731;50.720;6.912;2022-11-02T10:21:46;20.40;99.90
15257;DHT22;7731;50.720;6.912;2022-11-02T10:24:23;19.90;99.90
15257;DHT22;7731;50.720;6.912;2022-11-02T10:27:00;20.20;99.90
15257;DHT22;7731;50.720;6.912;2022-11-02T10:29:44;20.20;99.90
15257;DHT22;7731;50.720;6.912;2022-11-02T10:32:24;20.60;99.90
15257;DHT22;7731;50.720;6.912;2022-11-02T10:34:54;21.80;1.00
15257;DHT22;7731;50.720;6.912;2022-11-02T10:38:01;21.60;1.00
15257;DHT22;7731;50.720;6.912;2022-11-02T10:40:56;21.10;1.00
15257;DHT22;7731;50.720;6.912;2022-11-02T10:43:51;21.00;99.90
15257;DHT22;7731;50.720;6.912;2022-11-02T10:46:45;21.70;1.00
15257;DHT22;7731;50.720;6.912;2022-11-02T10:52:40;21.30;23.70
15257;DHT22;7731;50.720;6.912;2022-11-02T10:55:22;20.90;99.90
15257;DHT22;7731;50.720;6.912;2022-11-02T10:57:59;20.40;99.90
15257;DHT22;7731;50.720;6.912;2022-11-02T11:00:35;19.50;1.00
15257;DHT22;7731;50.720;6.912;2022-11-02T11:03:09;19.00;1.00
15257;DHT22;7731;50.720;6.912;2022-11-02T11:05:57;18.50;1.00
15257;DHT22;7731;50.720;6.912;2022-11-02T11:08:34;18.20;99.90
15257;DHT22;7731;50.720;6.912;2022-11-02T11:11:13;18.50;1.00
15257;DHT22;7731;50.720;6.912;2022-11-02T11:13:54;19.10;1.00
15257;DHT22;7731;50.720;6.912;2022-11-02T11:16:52;19.70;1.00
15257;DHT22;7731;50.720;6.912;2022-11-02T11:19:48;20.40;1.00
15257;DHT22;7731;50.720;6.912;2022-11-02T11:22:28;20.80;1.00
15257;DHT22;7731;50.720;6.912;2022-11-02T11:25:20;21.10;99.90
15257;DHT22;7731;50.720;6.912;2022-11-02T11:27:59;20.50;1.00
15257;DHT22;7731;50.720;6.912;2022-11-02T11:30:37;20.50;1.00
15257;DHT22;7731;50.720;6.912;2022-11-02T11:33:29;20.60;30.80
15257;DHT22;7731;50.720;6.912;2022-11-02T11:36:05;21.10;99.90
15257;DHT22;7731;50.720;6.912;2022-11-02T11:38:47;20.90;99.90
15257;DHT22;7731;50.720;6.912;2022-11-02T11:41:19;20.90;99.90
15257;DHT22;7731;50.720;6.912;2022-11-02T11:43:55;20.80;99.90
15257;DHT22;7731;50.720;6.912;2022-11-02T11:46:42;20.70;1.00
15257;DHT22;7731;50.720;6.912;2022-11-02T11:49:21;20.40;1.00
15257;DHT22;7731;50.720;6.912;2022-11-02T11:52:16;20.00;1.00
15257;DHT22;7731;50.720;6.912;2022-11-02T11:55:00;19.60;1.00
15257;DHT22;7731;50.720;6.912;2022-11-02T11:58:04;19.00;99.90
15257;DHT22;7731;50.720;6.912;2022-11-02T12:00:35;18.70;1.00
15257;DHT22;7731;50.720;6.912;2022-11-02T12:03:07;18.20;99.90
15257;DHT22;7731;50.720;6.912;2022-11-02T12:05:52;18.20;1.00
15257;DHT22;7731;50.720;6.912;2022-11-02T12:08:48;18.10;1.00
15257;DHT22;7731;50.720;6.912;2022-11-02T12:11:48;17.80;1.00
15257;DHT22;7731;50.720;6.912;2022-11-02T12:14:41;17.50;1.00
15257;DHT22;7731;50.720;6.912;2022-11-02T12:17:50;17.30;99.90
15257;DHT22;7731;50.720;6.912;2022-11-02T12:20:42;17.30;1.00
15257;DHT22;7731;50.720;6.912;2022-11-02T12:23:38;17.00;1.00
15257;DHT22;7731;50.720;6.912;2022-11-02T12:26:53;16.80;99.90
15257;DHT22;7731;50.720;6.912;2022-11-02T12:29:49;16.60;1.00
15257;DHT22;7731;50.720;6.912;2022-11-02T12:32:43;16.50;99.90
15257;DHT22;7731;50.720;6.912;2022-11-02T12:35:29;17.00;1.00
15257;DHT22;7731;50.720;6.912;2022-11-02T12:44:44;18.30;1.00
15257;DHT22;7731;50.720;6.912;2022-11-02T12:47:32;18.30;1.00
15257;DHT22;7731;50.720;6.912;2022-11-02T12:50:26;18.00;99.90
15257;DHT22;7731;50.720;6.912;2022-11-02T12:53:20;17.70;1.00
15257;DHT22;7731;50.720;6.912;2022-11-02T12:56:07;17.40;99.90
15257;DHT22;7731;50.720;6.912;2022-11-02T12:58:47;17.20;99.90
15257;DHT22;7731;50.720;6.912;2022-11-02T13:01:23;17.00;99.90
15257;DHT22;7731;50.720;6.912;2022-11-02T13:04:04;17.10;1.00
15257;DHT22;7731;50.720;6.912;2022-11-02T13:06:47;17.50;1.00
15257;DHT22;7731;50.720;6.912;2022-11-02T13:09:23;17.80;1.00
15257;DHT22;7731;50.720;6.912;2022-11-02T13:12:02;17.80;1.00
15257;DHT22;7731;50.720;6.912;2022-11-02T13:14:43;17.80;99.90
15257;DHT22;7731;50.720;6.912;2022-11-02T13:17:21;17.90;1.00
15257;DHT22;7731;50.720;6.912;2022-11-02T13:20:05;17.70;1.00
15257;DHT22;7731;50.720;6.912;2022-11-02T13:22:53;17.90;1.00
15257;DHT22;7731;50.720;6.912;2022-11-02T13:25:33;18.00;99.90
15257;DHT22;7731;50.720;6.912;2022-11-02T13:28:11;18.10;90.60
15257;DHT22;7731;50.720;6.912;2022-11-02T13:30:49;18.00;1.00
15257;DHT22;7731;50.720;6.912;2022-11-02T13:33:25;17.80;99.90
15257;DHT22;7731;50.720;6.912;2022-11-02T13:36:04;17.70;1.00
15257;DHT22;7731;50.720;6.912;2022-11-02T13:38:39;17.60;99.90
15257;DHT22;7731;50.720;6.912;2022-11-02T13:41:30;17.30;99.90
15257;DHT22;7731;50.720;6.912;2022-11-02T13:44:44;17.10;98.80
15257;DHT22;7731;50.720;6.912;2022-11-02T13:47:50;17.00;1.00
15257;DHT22;7731;50.720;6.912;2022-11-02T13:50:42;17.00;1.00
15257;DHT22;7731;50.720;6.912;2022-11-02T13:53:22;17.10;99.90
15257;DHT22;7731;50.720;6.912;2022-11-02T13:56:07;17.10;1.00
15257;DHT22;7731;50.720;6.912;2022-11-02T13:58:44;17.20;1.00
15257;DHT22;7731;50.720;6.912;2022-11-02T14:01:21;17.10;1.00
15257;DHT22;7731;50.720;6.912;2022-11-02T14:04:02;17.10;1.00
15257;DHT22;7731;50.720;6.912;2022-11-02T14:06:45;17.00;99.90
15257;DHT22;7731;50.720;6.912;2022-11-02T14:09:34;16.90;1.00
15257;DHT22;7731;50.720;6.912;2022-11-02T14:12:27;16.80;99.90
15257;DHT22;7731;50.720;6.912;2022-11-02T14:18:30;16.60;1.00
15257;DHT22;7731;50.720;6.912;2022-11-02T14:27:29;16.20;1.00
15257;DHT22;7731;50.720;6.912;2022-11-02T14:29:59;16.10;99.90
15257;DHT22;7731;50.720;6.912;2022-11-02T14:32:54;16.10;99.90
15257;DHT22;7731;50.720;6.912;2022-11-02T14:35:39;16.10;99.90
15257;DHT22;7731;50.720;6.912;2022-11-02T14:38:50;16.20;99.90
15257;DHT22;7731;50.720;6.912;2022-11-02T14:42:18;16.20;99.90
15257;DHT22;7731;50.720;6.912;2022-11-02T14:45:15;16.10;38.90
15257;DHT22;7731;50.720;6.912;2022-11-02T14:48:02;16.10;1.00
15257;DHT22;7731;50.720;6.912;2022-11-02T14:50:35;15.90;1.00
15257;DHT22;7731;50.720;6.912;2022-11-02T14:53:07;15.70;1.00
15257;DHT22;7731;50.720;6.912;2022-11-02T14:55:55;15.60;1.00
15257;DHT22;7731;50.720;6.912;2022-11-02T14:58:31;15.50;99.90
15257;DHT22;7731;50.720;6.912;2022-11-02T15:01:12;15.50;1.00
15257;DHT22;7731;50.720;6.912;2022-11-02T15:03:44;15.30;99.90
15257;DHT22;7731;50.720;6.912;2022-11-02T15:06:20;15.30;99.90
15257;DHT22;7731;50.720;6.912;2022-11-02T15:08:55;15.20;1.00
15257;DHT22;7731;50.720;6.912;2022-11-02T15:11:58;15.10;99.90
15257;DHT22;7731;50.720;6.912;2022-11-02T15:14:53;15.10;99.90
15257;DHT22;7731;50.720;6.912;2022-11-02T15:21:21;15.00;1.00
15257;DHT22;7731;50.720;6.912;2022-11-02T15:24:13;14.80;97.60
15257;DHT22;7731;50.720;6.912;2022-11-02T15:26:50;14.80;99.90
15257;DHT22;7731;50.720;6.912;2022-11-02T15:29:41;14.80;99.90
15257;DHT22;7731;50.720;6.912;2022-11-02T15:32:17;14.70;99.90
15257;DHT22;7731;50.720;6.912;2022-11-02T15:34:54;14.60;1.00
15257;DHT22;7731;50.720;6.912;2022-11-02T15:37:29;14.50;1.00
15257;DHT22;7731;50.720;6.912;2022-11-02T15:40:25;14.40;1.00
15257;DHT22;7731;50.720;6.912;2022-11-02T15:43:08;14.30;1.00
15257;DHT22;7731;50.720;6.912;2022-11-02T15:45:58;14.30;1.00
15257;DHT22;7731;50.720;6.912;2022-11-02T15:48:44;14.30;1.00
15257;DHT22;7731;50.720;6.912;2022-11-02T15:51:26;14.30;1.00
15257;DHT22;7731;50.720;6.912;2022-11-02T15:54:22;14.20;1.00
15257;DHT22;7731;50.720;6.912;2022-11-02T15:57:22;14.20;1.00
15257;DHT22;7731;50.720;6.912;2022-11-02T16:00:18;14.00;1.00
15257;DHT22;7731;50.720;6.912;2022-11-02T16:03:02;14.00;1.00
15257;DHT22;7731;50.720;6.912;2022-11-02T16:05:42;13.90;1.00
15257;DHT22;7731;50.720;6.912;2022-11-02T16:26:06;13.30;1.00
15257;DHT22;7731;50.720;6.912;2022-11-02T16:28:53;13.20;1.00
15257;DHT22;7731;50.720;6.912;2022-11-02T16:31:27;13.10;1.00
15257;DHT22;7731;50.720;6.912;2022-11-02T16:34:00;13.10;1.00
15257;DHT22;7731;50.720;6.912;2022-11-02T16:36:35;13.00;1.00
15257;DHT22;7731;50.720;6.912;2022-11-02T16:39:14;13.00;1.00
15257;DHT22;7731;50.720;6.912;2022-11-02T16:41:52;13.00;1.00
15257;DHT22;7731;50.720;6.912;2022-11-02T16:44:26;12.90;1.00
15257;DHT22;7731;50.720;6.912;2022-11-02T16:46:59;12.90;1.00
15257;DHT22;7731;50.720;6.912;2022-11-02T16:49:57;12.90;1.00
15257;DHT22;7731;50.720;6.912;2022-11-02T16:52:31;12.90;1.00
15257;DHT22;7731;50.720;6.912;2022-11-02T16:55:04;12.80;1.00
15257;DHT22;7731;50.720;6.912;2022-11-02T16:58:14;12.80;1.00
15257;DHT22;7731;50.720;6.912;2022-11-02T17:00:54;12.70;1.00
15257;DHT22;7731;50.720;6.912;2022-11-02T17:03:29;12.60;1.00
15257;DHT22;7731;50.720;6.912;2022-11-02T17:06:03;12.60;1.00
15257;DHT22;7731;50.720;6.912;2022-11-02T17:08:39;12.50;1.00
15257;DHT22;7731;50.720;6.912;2022-11-02T17:11:14;12.40;1.00
15257;DHT22;7731;50.720;6.912;2022-11-02T17:13:50;12.50;1.00
15257;DHT22;7731;50.720;6.912;2022-11-02T17:16:26;12.50;1.00
15257;DHT22;7731;50.720;6.912;2022-11-02T17:19:04;12.40;1.00
15257;DHT22;7731;50.720;6.912;2022-11-02T17:21:42;12.30;1.00
15257;DHT22;7731;50.720;6.912;2022-11-02T17:24:29;12.40;1.00
15257;DHT22;7731;50.720;6.912;2022-11-02T17:27:21;12.20;1.00
15257;DHT22;7731;50.720;6.912;2022-11-02T17:29:57;12.10;1.00
15257;DHT22;7731;50.720;6.912;2022-11-02T17:32:28;12.10;1.00
15257;DHT22;7731;50.720;6.912;2022-11-02T17:35:02;12.10;1.00
15257;DHT22;7731;50.720;6.912;2022-11-02T17:37:39;12.00;1.00
15257;DHT22;7731;50.720;6.912;2022-11-02T17:40:11;12.10;1.00
15257;DHT22;7731;50.720;6.912;2022-11-02T17:42:44;12.00;1.00
15257;DHT22;7731;50.720;6.912;2022-11-02T17:45:37;11.90;1.00
15257;DHT22;7731;50.720;6.912;2022-11-02T17:48:08;11.80;1.00
15257;DHT22;7731;50.720;6.912;2022-11-02T17:50:46;11.80;28.60